createdAt,value
2022-12-03T00:01:51.442Z,6.10
2022-12-03T00:04:23.315Z,6.20
2022-12-03T00:06:55.083Z,6.30
2022-12-03T00:09:22.454Z,6.30
2022-12-03T00:11:53.298Z,6.30
2022-12-03T00:14:23.102Z,6.30
2022-12-03T00:16:54.073Z,6.30
2022-12-03T00:19:22.026Z,6.30
2022-12-03T00:21:57.849Z,6.20
2022-12-03T00:24:31.708Z,6.20
2022-12-03T00:27:04.745Z,6.20
2022-12-03T00:29:39.735Z,6.10
2022-12-03T00:32:08.465Z,6.20
2022-12-03T00:34:42.438Z,6.20
2022-12-03T00:37:15.162Z,6.10
2022-12-03T00:39:46.283Z,6.10
2022-12-03T00:42:23.996Z,6.10
2022-12-03T00:44:55.523Z,6.10
2022-12-03T00:47:32.461Z,6.10
2022-12-03T00:50:01.808Z,6.20
2022-12-03T00:52:31.456Z,6.10
2022-12-03T00:55:04.070Z,6.20
2022-12-03T00:57:34.774Z,6.10
2022-12-03T01:00:08.744Z,6.10
2022-12-03T01:02:39.618Z,6.00
2022-12-03T01:05:09.318Z,6.10
2022-12-03T01:07:42.720Z,6.10
2022-12-03T01:10:23.300Z,6.10
2022-12-03T01:12:56.058Z,6.10
2022-12-03T01:15:27.121Z,6.10
2022-12-03T01:17:59.392Z,6.10
2022-12-03T01:20:35.298Z,6.00
2022-12-03T01:23:05.569Z,6.00
2022-12-03T01:25:37.251Z,6.00
2022-12-03T01:28:14.313Z,6.00
2022-12-03T01:31:01.793Z,6.00
2022-12-03T01:33:30.942Z,6.00
2022-12-03T01:35:58.459Z,6.00
2022-12-03T01:38:25.739Z,6.00
2022-12-03T01:40:58.393Z,6.00
2022-12-03T01:43:33.855Z,6.10
2022-12-03T01:46:04.926Z,6.00
2022-12-03T01:48:39.067Z,6.00
2022-12-03T01:51:09.722Z,6.00
2022-12-03T01:53:42.376Z,6.00
2022-12-03T01:56:27.569Z,6.00
2022-12-03T01:59:00.824Z,6.00
2022-12-03T02:01:33.189Z,6.00
2022-12-03T02:04:04.335Z,6.00
2022-12-03T02:06:37.100Z,6.00
2022-12-03T02:09:11.249Z,6.00
2022-12-03T02:11:47.212Z,6.10
2022-12-03T02:14:22.167Z,6.20
2022-12-03T02:16:56.874Z,6.10
2022-12-03T02:19:30.642Z,6.00
2022-12-03T02:22:06.044Z,6.00
2022-12-03T02:24:55.933Z,6.10
2022-12-03T02:27:29.113Z,6.10
2022-12-03T02:30:00.313Z,6.10
2022-12-03T02:32:28.738Z,6.10
2022-12-03T02:34:57.908Z,6.10
2022-12-03T02:37:34.000Z,6.10
2022-12-03T02:40:23.858Z,6.10
2022-12-03T02:42:57.247Z,6.10
2022-12-03T02:45:41.786Z,6.10
2022-12-03T02:48:17.254Z,6.10
2022-12-03T02:51:07.642Z,6.10
2022-12-03T02:53:47.084Z,6.10
2022-12-03T02:56:21.639Z,6.10
2022-12-03T02:58:55.322Z,6.10
2022-12-03T03:01:24.828Z,6.10
2022-12-03T03:03:54.228Z,6.10
2022-12-03T03:06:29.108Z,6.00
2022-12-03T03:08:59.998Z,6.10
2022-12-03T03:11:32.987Z,6.00
2022-12-03T03:14:07.155Z,6.00
2022-12-03T03:16:40.932Z,6.00
2022-12-03T03:19:08.620Z,6.00
2022-12-03T03:21:41.945Z,6.00
2022-12-03T03:24:15.285Z,6.00
2022-12-03T03:26:47.754Z,6.00
2022-12-03T03:29:19.121Z,6.00
2022-12-03T03:31:50.847Z,6.00
2022-12-03T03:34:26.240Z,6.10
2022-12-03T03:36:55.370Z,6.00
2022-12-03T03:39:26.702Z,6.00
2022-12-03T03:41:58.422Z,5.90
2022-12-03T03:44:29.359Z,6.00
2022-12-03T03:46:59.939Z,6.00
2022-12-03T03:49:35.551Z,6.00
2022-12-03T03:52:04.729Z,6.00
2022-12-03T03:54:35.167Z,6.00
2022-12-03T03:57:25.869Z,6.10
2022-12-03T04:00:03.236Z,6.10
2022-12-03T04:02:38.904Z,6.10
2022-12-03T04:05:14.255Z,5.90
2022-12-03T04:07:45.120Z,5.90
2022-12-03T04:10:37.839Z,5.90
2022-12-03T04:13:07.708Z,6.00
2022-12-03T04:15:40.790Z,6.00
2022-12-03T04:18:30.918Z,6.00
2022-12-03T04:21:22.956Z,6.00
2022-12-03T04:23:58.058Z,6.00
2022-12-03T04:26:48.635Z,5.90
2022-12-03T04:29:25.866Z,5.90
2022-12-03T04:32:18.470Z,5.90
2022-12-03T04:35:09.731Z,6.00
2022-12-03T04:37:41.951Z,6.00
2022-12-03T04:40:33.783Z,6.00
2022-12-03T04:43:08.215Z,6.00
2022-12-03T04:45:40.062Z,5.90
2022-12-03T04:48:10.430Z,6.00
2022-12-03T04:50:51.645Z,5.90
2022-12-03T04:53:24.856Z,5.80
2022-12-03T04:55:54.362Z,5.90
2022-12-03T04:58:22.767Z,5.80
2022-12-03T05:00:52.611Z,5.80
2022-12-03T05:03:20.988Z,5.90
2022-12-03T05:05:55.389Z,5.80
2022-12-03T05:08:26.101Z,5.80
2022-12-03T05:10:55.714Z,5.80
2022-12-03T05:13:25.510Z,5.80
2022-12-03T05:16:09.416Z,5.80
2022-12-03T05:18:41.663Z,5.80
2022-12-03T05:21:11.863Z,5.80
2022-12-03T05:23:47.159Z,5.60
2022-12-03T05:26:15.807Z,5.70
2022-12-03T05:28:45.715Z,5.60
2022-12-03T05:31:16.871Z,5.60
2022-12-03T05:33:46.670Z,5.60
2022-12-03T05:36:19.292Z,5.70
2022-12-03T05:38:51.596Z,5.70
2022-12-03T05:41:43.138Z,5.70
2022-12-03T05:44:17.369Z,5.70
2022-12-03T05:46:48.291Z,5.70
2022-12-03T05:49:18.926Z,5.70
2022-12-03T05:51:47.467Z,5.70
2022-12-03T05:54:17.990Z,5.70
2022-12-03T05:56:48.998Z,5.70
2022-12-03T05:59:20.734Z,5.70
2022-12-03T06:01:52.443Z,5.70
2022-12-03T06:04:26.250Z,5.70
2022-12-03T06:06:57.698Z,5.80
2022-12-03T06:09:49.124Z,5.80
2022-12-03T06:12:19.903Z,5.70
2022-12-03T06:14:52.359Z,5.70
2022-12-03T06:17:27.417Z,5.70
2022-12-03T06:19:55.340Z,5.70
2022-12-03T06:22:25.886Z,5.70
2022-12-03T06:25:02.190Z,5.80
2022-12-03T06:27:39.125Z,5.80
2022-12-03T06:30:12.323Z,5.80
2022-12-03T06:32:46.715Z,5.90
2022-12-03T06:35:18.274Z,5.90
2022-12-03T06:37:49.589Z,5.90
2022-12-03T06:40:22.751Z,6.00
2022-12-03T06:42:57.227Z,6.00
2022-12-03T06:45:24.807Z,6.00
2022-12-03T06:47:59.732Z,6.00
2022-12-03T06:50:28.409Z,6.00
2022-12-03T06:52:59.154Z,6.10
2022-12-03T06:55:27.992Z,6.00
2022-12-03T06:57:56.674Z,6.10
2022-12-03T07:00:29.597Z,6.10
2022-12-03T07:03:01.808Z,6.00
2022-12-03T07:05:29.579Z,5.90
2022-12-03T07:08:01.532Z,5.90
2022-12-03T07:10:33.406Z,5.80
2022-12-03T07:13:03.733Z,5.90
2022-12-03T07:15:34.690Z,6.00
2022-12-03T07:18:10.851Z,6.10
2022-12-03T07:20:42.158Z,6.20
2022-12-03T07:23:11.048Z,6.20
2022-12-03T07:25:50.049Z,6.20
2022-12-03T07:28:18.626Z,6.30
2022-12-03T07:30:56.807Z,6.30
2022-12-03T07:33:26.968Z,6.30
2022-12-03T07:35:58.394Z,6.30
2022-12-03T07:38:32.072Z,6.30
2022-12-03T07:41:05.806Z,6.30
2022-12-03T07:43:35.975Z,6.30
2022-12-03T07:46:08.158Z,6.30
2022-12-03T07:48:40.790Z,6.30
2022-12-03T07:51:15.261Z,6.40
2022-12-03T07:53:46.942Z,6.40
2022-12-03T07:56:20.845Z,6.50
2022-12-03T07:58:52.769Z,6.60
2022-12-03T08:01:24.558Z,6.60
2022-12-03T08:03:56.050Z,6.70
2022-12-03T08:06:26.875Z,6.80
2022-12-03T08:08:55.696Z,6.80
2022-12-03T08:11:30.420Z,6.90
2022-12-03T08:13:59.975Z,6.90
2022-12-03T08:16:32.904Z,6.90
2022-12-03T08:19:03.259Z,6.90
2022-12-03T08:21:38.343Z,7.00
2022-12-03T08:24:16.681Z,7.00
2022-12-03T08:26:50.645Z,7.10
2022-12-03T08:29:21.246Z,7.20
2022-12-03T08:32:05.082Z,7.20
2022-12-03T08:34:43.697Z,7.30
2022-12-03T08:37:26.803Z,7.30
2022-12-03T08:39:55.910Z,7.30
2022-12-03T08:42:55.090Z,7.30
2022-12-03T08:45:43.660Z,7.40
2022-12-03T08:48:27.786Z,7.40
2022-12-03T08:51:26.879Z,7.50
2022-12-03T08:54:01.798Z,7.60
2022-12-03T08:56:35.594Z,7.50
2022-12-03T08:59:34.868Z,7.60
2022-12-03T09:02:21.818Z,7.60
2022-12-03T09:04:58.935Z,7.70
2022-12-03T09:07:26.065Z,7.70
2022-12-03T09:09:56.109Z,7.80
2022-12-03T09:12:26.031Z,7.80
2022-12-03T09:14:54.807Z,7.90
2022-12-03T09:17:25.699Z,7.90
2022-12-03T09:19:55.522Z,7.90
2022-12-03T09:22:25.153Z,8.00
2022-12-03T09:24:58.287Z,8.00
2022-12-03T09:27:25.565Z,8.00
2022-12-03T09:29:59.508Z,8.00
2022-12-03T09:32:31.507Z,8.10
2022-12-03T09:35:07.013Z,8.10
2022-12-03T09:37:34.930Z,8.10
2022-12-03T09:40:02.601Z,8.10
2022-12-03T09:42:39.085Z,8.10
2022-12-03T09:45:15.785Z,8.20
2022-12-03T09:47:51.056Z,8.20
2022-12-03T09:50:33.966Z,8.20
2022-12-03T09:53:06.464Z,8.30
2022-12-03T09:55:35.738Z,8.30
2022-12-03T09:58:14.784Z,8.40
2022-12-03T10:00:49.895Z,8.50
2022-12-03T10:03:30.238Z,8.50
2022-12-03T10:06:02.826Z,8.50
2022-12-03T10:08:33.216Z,8.60
2022-12-03T10:11:03.836Z,8.60
2022-12-03T10:13:34.803Z,8.70
2022-12-03T10:16:05.224Z,8.70
2022-12-03T10:18:41.508Z,8.70
2022-12-03T10:21:20.714Z,8.80
2022-12-03T10:23:55.572Z,8.80
2022-12-03T10:26:48.702Z,8.90
2022-12-03T10:29:34.006Z,9.00
2022-12-03T10:32:17.579Z,9.00
2022-12-03T10:34:46.505Z,9.00
2022-12-03T10:37:21.939Z,9.10
2022-12-03T10:40:02.577Z,9.20
2022-12-03T10:42:37.233Z,9.20
2022-12-03T10:45:26.511Z,9.20
2022-12-03T10:48:22.311Z,9.30
2022-12-03T10:51:23.603Z,9.30
2022-12-03T10:53:58.108Z,9.40
2022-12-03T10:56:26.698Z,9.40
2022-12-03T10:58:57.154Z,9.50
2022-12-03T11:01:26.505Z,9.50
2022-12-03T11:04:04.085Z,9.50
2022-12-03T11:09:23.642Z,9.70
2022-12-03T11:11:52.808Z,9.80
2022-12-03T11:14:53.561Z,9.90
2022-12-03T11:17:54.720Z,10.00
2022-12-03T11:20:49.446Z,10.10
2022-12-03T11:23:57.246Z,10.10
2022-12-03T11:26:43.846Z,10.30
2022-12-03T11:29:15.705Z,10.40
2022-12-03T11:31:48.919Z,10.40
2022-12-03T11:34:46.660Z,10.40
2022-12-03T11:37:14.666Z,10.40
2022-12-03T11:39:53.136Z,10.50
2022-12-03T11:42:29.638Z,10.60
2022-12-03T11:45:21.439Z,10.60
2022-12-03T11:48:13.622Z,10.50
2022-12-03T11:50:52.035Z,10.60
2022-12-03T11:53:47.293Z,10.50
2022-12-03T11:56:26.097Z,10.50
2022-12-03T11:59:06.944Z,10.60
2022-12-03T12:01:41.733Z,10.70
2022-12-03T12:04:42.649Z,10.70
2022-12-03T12:07:12.234Z,10.60
2022-12-03T12:09:59.149Z,10.70
2022-12-03T12:12:54.942Z,10.70
2022-12-03T12:15:44.498Z,10.70
2022-12-03T12:18:53.878Z,10.70
2022-12-03T12:21:43.583Z,10.60
2022-12-03T12:24:57.902Z,10.50
2022-12-03T12:27:31.629Z,10.50
2022-12-03T12:30:33.161Z,10.60
2022-12-03T12:33:25.972Z,10.60
2022-12-03T12:35:58.157Z,10.80
2022-12-03T12:38:40.234Z,10.90
2022-12-03T12:41:14.378Z,11.00
2022-12-03T12:43:45.205Z,11.10
2022-12-03T12:49:29.110Z,11.60
2022-12-03T12:52:11.749Z,12.70
2022-12-03T12:54:42.092Z,13.40
2022-12-03T12:57:23.005Z,14.20
2022-12-03T12:59:54.734Z,14.20
2022-12-03T13:02:51.286Z,14.20
2022-12-03T13:05:24.366Z,14.20
2022-12-03T13:07:54.997Z,14.00
2022-12-03T13:10:36.669Z,13.30
2022-12-03T13:13:40.112Z,12.90
2022-12-03T13:16:35.896Z,13.00
2022-12-03T13:19:25.497Z,12.90
2022-12-03T13:22:02.503Z,12.90
2022-12-03T13:24:43.934Z,13.40
2022-12-03T13:27:26.878Z,13.40
2022-12-03T13:30:11.099Z,13.80
2022-12-03T13:32:45.112Z,13.90
2022-12-03T13:35:37.650Z,14.00
2022-12-03T13:38:24.598Z,13.70
2022-12-03T13:41:02.854Z,13.40
2022-12-03T13:43:44.577Z,13.20
2022-12-03T13:46:19.206Z,13.00
2022-12-03T13:48:57.383Z,12.80
2022-12-03T13:51:32.160Z,12.70
2022-12-03T13:54:00.904Z,12.60
2022-12-03T13:56:42.304Z,12.30
2022-12-03T13:59:09.851Z,12.00
2022-12-03T14:01:40.752Z,11.80
2022-12-03T14:04:10.826Z,11.60
2022-12-03T14:06:42.246Z,11.60
2022-12-03T14:09:13.236Z,11.60
2022-12-03T14:12:02.623Z,11.50
2022-12-03T14:17:37.439Z,11.00
2022-12-03T14:20:10.998Z,10.90
2022-12-03T14:22:38.412Z,10.70
2022-12-03T14:25:09.351Z,10.70
2022-12-03T14:27:39.012Z,10.60
2022-12-03T14:30:12.918Z,10.50
2022-12-03T14:32:46.571Z,10.20
2022-12-03T14:35:15.719Z,10.10
2022-12-03T14:37:44.924Z,10.10
2022-12-03T14:40:21.416Z,10.00
2022-12-03T14:42:53.389Z,9.80
2022-12-03T14:45:26.155Z,9.70
2022-12-03T14:47:53.808Z,9.60
2022-12-03T14:50:25.532Z,9.40
2022-12-03T14:52:53.898Z,9.40
2022-12-03T14:55:22.287Z,9.30
2022-12-03T14:57:53.262Z,9.30
2022-12-03T15:00:30.018Z,9.20
2022-12-03T15:03:01.402Z,9.20
2022-12-03T15:05:29.239Z,9.10
2022-12-03T15:07:58.890Z,9.00
2022-12-03T15:10:30.311Z,8.90
2022-12-03T15:13:01.371Z,8.80
2022-12-03T15:15:33.789Z,8.80
2022-12-03T15:18:05.214Z,8.80
2022-12-03T15:20:38.138Z,8.80
2022-12-03T15:23:14.045Z,8.80
2022-12-03T15:25:44.348Z,8.70
2022-12-03T15:28:15.373Z,8.60
2022-12-03T15:30:51.955Z,8.50
2022-12-03T15:33:23.668Z,8.50
2022-12-03T15:35:55.844Z,8.50
2022-12-03T15:38:29.715Z,8.50
2022-12-03T15:41:26.499Z,8.40
2022-12-03T15:44:03.625Z,8.30
2022-12-03T15:46:41.043Z,8.30
2022-12-03T15:49:14.042Z,8.30
2022-12-03T15:51:42.859Z,8.20
2022-12-03T15:54:13.197Z,8.10
2022-12-03T15:56:42.703Z,8.10
2022-12-03T15:59:18.419Z,8.10
2022-12-03T16:01:51.988Z,8.10
2022-12-03T16:04:22.498Z,8.10
2022-12-03T16:06:57.733Z,8.10
2022-12-03T16:09:29.249Z,8.00
2022-12-03T16:12:03.214Z,8.10
2022-12-03T16:14:35.005Z,8.10
2022-12-03T16:17:09.247Z,8.20
2022-12-03T16:19:44.856Z,8.10
2022-12-03T16:22:20.538Z,8.00
2022-12-03T16:25:04.099Z,8.00
2022-12-03T16:27:40.358Z,8.10
2022-12-03T16:33:11.675Z,8.00
2022-12-03T16:35:44.607Z,7.90
2022-12-03T16:38:17.935Z,7.90
2022-12-03T16:40:54.903Z,7.80
2022-12-03T16:43:29.616Z,7.70
2022-12-03T16:46:22.628Z,7.60
2022-12-03T16:48:58.820Z,7.50
2022-12-03T16:51:31.587Z,7.40
2022-12-03T16:54:02.151Z,7.40
2022-12-03T16:56:33.405Z,7.40
2022-12-03T16:59:01.564Z,7.40
2022-12-03T17:01:35.802Z,7.30
2022-12-03T17:04:09.432Z,7.20
2022-12-03T17:06:43.384Z,7.20
2022-12-03T17:09:14.992Z,7.10
2022-12-03T17:11:49.522Z,7.10
2022-12-03T17:14:22.317Z,7.20
2022-12-03T17:16:56.462Z,7.20
2022-12-03T17:19:27.122Z,7.20
2022-12-03T17:22:00.325Z,7.20
2022-12-03T17:24:28.990Z,7.30
2022-12-03T17:27:02.362Z,7.20
2022-12-03T17:29:35.564Z,7.10
2022-12-03T17:32:12.029Z,7.10
2022-12-03T17:34:44.578Z,7.10
2022-12-03T17:37:14.749Z,7.20
2022-12-03T17:39:49.349Z,7.10
2022-12-03T17:42:21.370Z,7.10
2022-12-03T17:44:56.257Z,7.20
2022-12-03T17:47:35.381Z,7.20
2022-12-03T17:50:06.046Z,7.30
2022-12-03T17:52:36.827Z,7.40
2022-12-03T17:55:26.190Z,7.50
2022-12-03T17:58:07.786Z,7.40
2022-12-03T18:00:40.106Z,7.40
2022-12-03T18:03:10.802Z,7.50
2022-12-03T18:05:43.672Z,7.60
2022-12-03T18:08:13.768Z,7.70
2022-12-03T18:10:47.174Z,7.80
2022-12-03T18:13:18.902Z,7.70
2022-12-03T18:15:49.419Z,7.70
2022-12-03T18:18:27.726Z,7.70
2022-12-03T18:20:57.249Z,7.70
2022-12-03T18:23:30.713Z,7.60
2022-12-03T18:26:04.875Z,7.50
2022-12-03T18:28:35.607Z,7.40
2022-12-03T18:31:17.425Z,7.20
2022-12-03T18:33:49.588Z,7.10
2022-12-03T18:36:30.128Z,7.00
2022-12-03T18:39:04.733Z,7.00
2022-12-03T18:41:33.784Z,7.00
2022-12-03T18:44:21.306Z,7.00
2022-12-03T18:46:55.172Z,7.00
2022-12-03T18:49:33.067Z,6.90
2022-12-03T18:52:11.528Z,6.90
2022-12-03T18:54:43.747Z,7.00
2022-12-03T18:57:15.909Z,6.90
2022-12-03T18:59:48.157Z,6.90
2022-12-03T19:05:23.253Z,6.90
2022-12-03T19:07:58.887Z,6.80
2022-12-03T19:10:29.253Z,6.80
2022-12-03T19:13:01.894Z,6.80
2022-12-03T19:15:30.355Z,6.80
2022-12-03T19:18:02.856Z,6.80
2022-12-03T19:20:36.647Z,6.70
2022-12-03T19:23:09.081Z,6.70
2022-12-03T19:25:41.737Z,6.60
2022-12-03T19:28:17.631Z,6.70
2022-12-03T19:31:23.306Z,6.70
2022-12-03T19:33:58.299Z,6.70
2022-12-03T19:36:34.067Z,6.60
2022-12-03T19:39:05.729Z,6.60
2022-12-03T19:41:38.240Z,6.60
2022-12-03T19:44:10.935Z,6.80
2022-12-03T19:47:07.785Z,6.80
2022-12-03T19:49:41.116Z,6.80
2022-12-03T19:52:11.886Z,6.70
2022-12-03T19:54:43.556Z,6.60
2022-12-03T19:57:23.057Z,6.60
2022-12-03T19:59:58.741Z,6.60
2022-12-03T20:02:32.655Z,6.50
2022-12-03T20:05:08.264Z,6.60
2022-12-03T20:07:59.054Z,6.70
2022-12-03T20:10:31.562Z,6.70
2022-12-03T20:13:04.798Z,6.60
2022-12-03T20:15:38.864Z,6.60
2022-12-03T20:18:17.631Z,6.60
2022-12-03T20:23:33.112Z,6.70
2022-12-03T20:26:09.823Z,6.70
2022-12-03T20:28:43.528Z,6.70
2022-12-03T20:31:24.042Z,6.70
2022-12-03T20:34:00.857Z,6.70
2022-12-03T20:36:33.509Z,6.60
2022-12-03T20:39:08.992Z,6.70
2022-12-03T20:41:40.310Z,6.80
2022-12-03T20:44:08.642Z,6.80
2022-12-03T20:46:38.817Z,6.90
2022-12-03T20:49:11.097Z,7.00
2022-12-03T20:51:50.163Z,7.00
2022-12-03T20:54:19.858Z,7.00
2022-12-03T20:56:51.645Z,6.90
2022-12-03T20:59:22.732Z,6.80
2022-12-03T21:01:52.733Z,6.80
2022-12-03T21:04:22.694Z,6.80
2022-12-03T21:06:53.570Z,6.70
2022-12-03T21:09:24.826Z,6.60
2022-12-03T21:11:54.448Z,6.50
2022-12-03T21:14:27.941Z,6.40
2022-12-03T21:17:08.459Z,6.30
2022-12-03T21:19:44.670Z,6.40
2022-12-03T21:22:19.756Z,6.80
2022-12-03T21:24:49.600Z,6.80
2022-12-03T21:27:22.774Z,6.60
2022-12-03T21:29:54.452Z,6.50
2022-12-03T21:32:27.920Z,6.50
2022-12-03T21:35:04.635Z,6.60
2022-12-03T21:37:35.800Z,6.60
2022-12-03T21:40:17.235Z,6.40
2022-12-03T21:42:50.965Z,6.50
2022-12-03T21:45:30.122Z,6.40
2022-12-03T21:48:03.453Z,6.30
2022-12-03T21:50:36.127Z,6.20
2022-12-03T21:53:07.476Z,6.50
2022-12-03T21:55:55.699Z,6.70
2022-12-03T21:58:40.937Z,6.70
2022-12-03T22:01:27.752Z,6.90
2022-12-03T22:04:06.887Z,7.00
2022-12-03T22:06:38.486Z,7.00
2022-12-03T22:09:13.144Z,6.90
2022-12-03T22:11:42.273Z,6.90
2022-12-03T22:14:14.713Z,7.00
2022-12-03T22:16:52.362Z,7.10
2022-12-03T22:19:40.290Z,7.10
2022-12-03T22:22:11.081Z,7.00
2022-12-03T22:24:43.252Z,7.00
2022-12-03T22:27:18.675Z,7.00
2022-12-03T22:29:52.906Z,6.80
2022-12-03T22:32:24.356Z,6.90
2022-12-03T22:34:56.941Z,6.80
2022-12-03T22:37:31.034Z,6.80
2022-12-03T22:40:01.869Z,6.90
2022-12-03T22:42:36.745Z,6.70
2022-12-03T22:45:06.682Z,6.50
2022-12-03T22:47:38.074Z,6.40
2022-12-03T22:50:14.176Z,6.50
2022-12-03T22:52:46.474Z,6.60
2022-12-03T22:55:23.986Z,6.50
2022-12-03T22:57:56.548Z,6.50
2022-12-03T23:00:35.231Z,6.50
2022-12-03T23:03:24.960Z,6.80
2022-12-03T23:05:55.656Z,6.90
2022-12-03T23:08:26.953Z,6.90
2022-12-03T23:11:07.383Z,6.90
2022-12-03T23:13:57.058Z,6.90
2022-12-03T23:16:30.495Z,6.90
2022-12-03T23:19:02.644Z,7.00
2022-12-03T23:21:34.564Z,7.00
2022-12-03T23:24:09.671Z,7.00
2022-12-03T23:26:53.788Z,7.10
2022-12-03T23:29:27.285Z,7.10
2022-12-03T23:32:00.129Z,7.10
2022-12-03T23:34:34.727Z,7.00
2022-12-03T23:37:07.907Z,7.00
2022-12-03T23:39:41.674Z,6.80
2022-12-03T23:42:14.101Z,6.60
2022-12-03T23:44:49.938Z,6.50
2022-12-03T23:47:22.949Z,6.60
2022-12-03T23:49:52.272Z,6.80
2022-12-03T23:52:27.414Z,6.90
2022-12-03T23:54:58.123Z,7.00
2022-12-03T23:57:26.537Z,7.00
2022-12-03T23:59:57.790Z,7.00
